sensor_id;sensor_type;location;lat;lon;timestamp;pressure;altitude;pressure_sealevel;temperature;humidity
9261;BME280;4667;42.726;23.252;2024-02-23T00:01:59;94665.19;;;7.10;47.71
9261;BME280;4667;42.726;23.252;2024-02-23T00:04:26;94948.09;;;8.98;47.15
9261;BME280;4667;42.726;23.252;2024-02-23T00:06:53;94948.63;;;9.17;47.01
9261;BME280;4667;42.726;23.252;2024-02-23T00:09:21;94950.78;;;9.25;47.21
9261;BME280;4667;42.726;23.252;2024-02-23T00:11:49;94804.25;;;8.16;47.18
9261;BME280;4667;42.726;23.252;2024-02-23T00:14:16;94973.19;;;9.05;47.89
9261;BME280;4667;42.726;23.252;2024-02-23T00:16:44;94455.47;;;5.87;48.88
9261;BME280;4667;42.726;23.252;2024-02-23T00:19:11;94955.69;;;9.16;48.42
9261;BME280;4667;42.726;23.252;2024-02-23T00:21:38;94946.03;;;9.22;47.70
9261;BME280;4667;42.726;23.252;2024-02-23T00:24:05;94950.47;;;9.21;48.37
9261;BME280;4667;42.726;23.252;2024-02-23T00:26:34;94918.13;;;9.21;48.16
9261;BME280;4667;42.726;23.252;2024-02-23T00:29:02;94940.28;;;9.25;47.83
9261;BME280;4667;42.726;23.252;2024-02-23T00:31:29;94486.13;;;6.03;47.58
9261;BME280;4667;42.726;23.252;2024-02-23T00:33:56;94940.88;;;9.10;48.16
9261;BME280;4667;42.726;23.252;2024-02-23T00:36:23;94931.00;;;9.17;47.71
9261;BME280;4667;42.726;23.252;2024-02-23T00:38:50;94928.50;;;8.67;48.46
9261;BME280;4667;42.726;23.252;2024-02-23T00:41:17;94804.72;;;8.13;48.08
9261;BME280;4667;42.726;23.252;2024-02-23T00:43:45;94774.47;;;7.71;48.75
9261;BME280;4667;42.726;23.252;2024-02-23T00:46:13;94815.34;;;7.67;49.36
9261;BME280;4667;42.726;23.252;2024-02-23T00:48:40;94793.88;;;7.70;49.26
9261;BME280;4667;42.726;23.252;2024-02-23T00:51:07;94843.47;;;7.84;49.39
9261;BME280;4667;42.726;23.252;2024-02-23T00:53:34;94942.03;;;7.91;50.08
9261;BME280;4667;42.726;23.252;2024-02-23T00:56:00;94923.19;;;7.94;50.29
9261;BME280;4667;42.726;23.252;2024-02-23T00:58:27;94919.50;;;8.29;50.13
9261;BME280;4667;42.726;23.252;2024-02-23T01:00:56;94915.84;;;8.30;49.34
9261;BME280;4667;42.726;23.252;2024-02-23T01:03:22;94631.94;;;6.31;49.69
9261;BME280;4667;42.726;23.252;2024-02-23T01:05:49;94922.03;;;8.24;49.93
9261;BME280;4667;42.726;23.252;2024-02-23T01:08:16;94871.94;;;7.75;49.96
9261;BME280;4667;42.726;23.252;2024-02-23T01:10:43;94682.88;;;6.86;49.54
9261;BME280;4667;42.726;23.252;2024-02-23T01:13:10;94892.13;;;8.42;49.82
9261;BME280;4667;42.726;23.252;2024-02-23T01:15:37;94904.31;;;8.31;49.61
9261;BME280;4667;42.726;23.252;2024-02-23T01:18:06;94912.25;;;7.86;51.37
9261;BME280;4667;42.726;23.252;2024-02-23T01:20:33;94748.38;;;6.97;51.11
9261;BME280;4667;42.726;23.252;2024-02-23T01:23:00;94906.38;;;8.12;51.01
9261;BME280;4667;42.726;23.252;2024-02-23T01:25:27;94806.59;;;7.62;50.06
9261;BME280;4667;42.726;23.252;2024-02-23T01:27:54;94903.72;;;8.29;50.16
9261;BME280;4667;42.726;23.252;2024-02-23T01:30:21;94608.44;;;6.36;49.75
9261;BME280;4667;42.726;23.252;2024-02-23T01:32:48;94899.53;;;8.28;50.27
9261;BME280;4667;42.726;23.252;2024-02-23T01:35:17;94667.91;;;7.15;49.67
9261;BME280;4667;42.726;23.252;2024-02-23T01:37:44;94883.59;;;8.34;50.31
9261;BME280;4667;42.726;23.252;2024-02-23T01:40:11;94896.75;;;8.34;49.82
9261;BME280;4667;42.726;23.252;2024-02-23T01:42:38;94878.41;;;8.56;49.92
9261;BME280;4667;42.726;23.252;2024-02-23T01:45:06;94894.75;;;8.25;50.35
9261;BME280;4667;42.726;23.252;2024-02-23T01:47:34;94831.50;;;7.93;49.91
9261;BME280;4667;42.726;23.252;2024-02-23T01:50:01;94887.75;;;8.14;50.25
9261;BME280;4667;42.726;23.252;2024-02-23T01:52:31;94832.50;;;8.08;49.92
9261;BME280;4667;42.726;23.252;2024-02-23T01:54:58;94879.25;;;8.40;50.16
9261;BME280;4667;42.726;23.252;2024-02-23T01:57:26;94880.84;;;8.41;49.69
9261;BME280;4667;42.726;23.252;2024-02-23T01:59:55;94880.84;;;8.41;49.39
9261;BME280;4667;42.726;23.252;2024-02-23T02:02:22;94843.41;;;8.17;49.50
9261;BME280;4667;42.726;23.252;2024-02-23T02:04:49;94884.81;;;7.76;51.32
9261;BME280;4667;42.726;23.252;2024-02-23T02:07:16;94833.66;;;7.96;49.96
9261;BME280;4667;42.726;23.252;2024-02-23T02:09:45;94716.69;;;6.99;50.79
9261;BME280;4667;42.726;23.252;2024-02-23T02:12:12;94883.84;;;7.82;51.21
9261;BME280;4667;42.726;23.252;2024-02-23T02:14:39;94840.75;;;7.95;51.10
9261;BME280;4667;42.726;23.252;2024-02-23T02:17:06;94871.50;;;8.17;50.79
9261;BME280;4667;42.726;23.252;2024-02-23T02:19:32;94878.22;;;8.24;50.63
9261;BME280;4667;42.726;23.252;2024-02-23T02:21:59;94856.16;;;8.08;50.93
9261;BME280;4667;42.726;23.252;2024-02-23T02:24:27;94686.63;;;6.73;51.79
9261;BME280;4667;42.726;23.252;2024-02-23T02:26:55;94547.19;;;5.92;52.13
9261;BME280;4667;42.726;23.252;2024-02-23T02:29:22;94861.56;;;8.02;51.79
9261;BME280;4667;42.726;23.252;2024-02-23T02:31:49;94885.59;;;7.77;53.05
9261;BME280;4667;42.726;23.252;2024-02-23T02:34:16;94788.41;;;7.38;53.21
9261;BME280;4667;42.726;23.252;2024-02-23T02:36:43;94829.22;;;7.79;53.05
9261;BME280;4667;42.726;23.252;2024-02-23T02:39:10;94877.81;;;7.65;54.87
9261;BME280;4667;42.726;23.252;2024-02-23T02:41:37;94856.09;;;7.87;54.40
9261;BME280;4667;42.726;23.252;2024-02-23T02:44:05;94880.19;;;7.67;54.61
9261;BME280;4667;42.726;23.252;2024-02-23T02:46:33;94876.69;;;7.61;54.44
9261;BME280;4667;42.726;23.252;2024-02-23T02:48:59;94876.63;;;7.73;53.87
9261;BME280;4667;42.726;23.252;2024-02-23T02:51:26;94812.47;;;7.35;54.70
9261;BME280;4667;42.726;23.252;2024-02-23T02:53:53;94885.38;;;7.33;55.49
9261;BME280;4667;42.726;23.252;2024-02-23T02:56:20;94859.97;;;7.67;53.89
9261;BME280;4667;42.726;23.252;2024-02-23T02:58:47;94885.75;;;7.70;53.92
9261;BME280;4667;42.726;23.252;2024-02-23T03:01:15;94882.16;;;7.60;54.14
9261;BME280;4667;42.726;23.252;2024-02-23T03:03:42;94733.25;;;6.71;54.10
9261;BME280;4667;42.726;23.252;2024-02-23T03:06:09;94830.22;;;7.28;54.42
9261;BME280;4667;42.726;23.252;2024-02-23T03:08:36;94790.44;;;7.36;54.07
9261;BME280;4667;42.726;23.252;2024-02-23T03:11:03;94889.88;;;7.66;54.34
9261;BME280;4667;42.726;23.252;2024-02-23T03:13:30;94880.06;;;7.45;54.92
9261;BME280;4667;42.726;23.252;2024-02-23T03:15:58;94893.88;;;7.86;54.24
9261;BME280;4667;42.726;23.252;2024-02-23T03:18:26;94600.09;;;5.94;53.62
9261;BME280;4667;42.726;23.252;2024-02-23T03:20:54;94876.13;;;7.76;54.10
9261;BME280;4667;42.726;23.252;2024-02-23T03:23:22;94777.41;;;7.41;53.35
9261;BME280;4667;42.726;23.252;2024-02-23T03:25:48;94879.09;;;7.79;53.40
9261;BME280;4667;42.726;23.252;2024-02-23T03:28:15;94854.50;;;7.69;53.22
9261;BME280;4667;42.726;23.252;2024-02-23T03:30:42;94699.09;;;6.66;53.88
9261;BME280;4667;42.726;23.252;2024-02-23T03:33:09;94868.13;;;7.99;53.16
9261;BME280;4667;42.726;23.252;2024-02-23T03:35:37;94860.31;;;7.71;54.02
9261;BME280;4667;42.726;23.252;2024-02-23T03:38:04;94861.25;;;7.98;53.32
9261;BME280;4667;42.726;23.252;2024-02-23T03:40:31;94883.63;;;8.01;54.07
9261;BME280;4667;42.726;23.252;2024-02-23T03:42:59;94867.38;;;8.21;53.14
9261;BME280;4667;42.726;23.252;2024-02-23T03:45:26;94873.91;;;8.18;53.69
9261;BME280;4667;42.726;23.252;2024-02-23T03:47:53;94810.25;;;7.77;53.19
9261;BME280;4667;42.726;23.252;2024-02-23T03:50:20;94754.53;;;7.37;53.49
9261;BME280;4667;42.726;23.252;2024-02-23T03:52:48;94881.88;;;8.06;53.75
9261;BME280;4667;42.726;23.252;2024-02-23T03:55:15;94867.38;;;7.87;53.76
9261;BME280;4667;42.726;23.252;2024-02-23T03:57:42;94564.81;;;5.96;53.35
9261;BME280;4667;42.726;23.252;2024-02-23T04:00:10;94874.22;;;8.22;53.12
9261;BME280;4667;42.726;23.252;2024-02-23T04:02:38;94727.03;;;7.39;52.46
9261;BME280;4667;42.726;23.252;2024-02-23T04:05:06;94800.56;;;7.61;52.36
9261;BME280;4667;42.726;23.252;2024-02-23T04:07:32;94807.63;;;7.77;52.80
9261;BME280;4667;42.726;23.252;2024-02-23T04:10:01;94719.06;;;7.34;52.25
9261;BME280;4667;42.726;23.252;2024-02-23T04:12:30;94848.66;;;8.17;52.01
9261;BME280;4667;42.726;23.252;2024-02-23T04:14:57;94673.78;;;7.05;52.19
9261;BME280;4667;42.726;23.252;2024-02-23T04:17:24;94888.03;;;8.34;52.55
9261;BME280;4667;42.726;23.252;2024-02-23T04:19:51;94872.63;;;8.38;52.08
9261;BME280;4667;42.726;23.252;2024-02-23T04:22:18;94760.56;;;7.20;53.15
9261;BME280;4667;42.726;23.252;2024-02-23T04:24:44;94884.00;;;7.93;53.90
9261;BME280;4667;42.726;23.252;2024-02-23T04:27:13;94749.50;;;6.73;55.16
9261;BME280;4667;42.726;23.252;2024-02-23T04:29:40;94885.84;;;7.75;54.30
9261;BME280;4667;42.726;23.252;2024-02-23T04:32:07;94879.97;;;7.85;53.54
9261;BME280;4667;42.726;23.252;2024-02-23T04:34:34;94877.59;;;7.84;53.51
9261;BME280;4667;42.726;23.252;2024-02-23T04:37:01;94887.13;;;7.27;55.16
9261;BME280;4667;42.726;23.252;2024-02-23T04:39:28;94827.22;;;7.08;54.83
9261;BME280;4667;42.726;23.252;2024-02-23T04:41:55;94735.00;;;6.54;55.22
9261;BME280;4667;42.726;23.252;2024-02-23T04:44:23;94380.19;;;4.23;54.69
9261;BME280;4667;42.726;23.252;2024-02-23T04:46:50;94888.22;;;7.32;55.14
9261;BME280;4667;42.726;23.252;2024-02-23T04:49:17;94836.44;;;7.10;55.05
9261;BME280;4667;42.726;23.252;2024-02-23T04:51:44;94893.66;;;7.13;55.99
9261;BME280;4667;42.726;23.252;2024-02-23T04:54:11;94893.81;;;7.35;55.90
9261;BME280;4667;42.726;23.252;2024-02-23T04:56:38;94890.44;;;6.83;56.37
9261;BME280;4667;42.726;23.252;2024-02-23T04:59:05;94894.25;;;7.03;56.69
9261;BME280;4667;42.726;23.252;2024-02-23T05:01:36;94890.25;;;7.13;56.75
9261;BME280;4667;42.726;23.252;2024-02-23T05:04:03;94891.09;;;6.90;57.83
9261;BME280;4667;42.726;23.252;2024-02-23T05:06:30;94793.88;;;6.11;57.93
9261;BME280;4667;42.726;23.252;2024-02-23T05:08:57;94899.84;;;6.95;57.66
9261;BME280;4667;42.726;23.252;2024-02-23T05:11:24;94898.84;;;7.25;56.65
9261;BME280;4667;42.726;23.252;2024-02-23T05:13:51;94903.25;;;7.36;56.19
9261;BME280;4667;42.726;23.252;2024-02-23T05:16:18;94917.91;;;6.80;57.94
9261;BME280;4667;42.726;23.252;2024-02-23T05:18:46;94910.84;;;7.21;56.54
9261;BME280;4667;42.726;23.252;2024-02-23T05:21:14;94916.13;;;7.09;56.52
9261;BME280;4667;42.726;23.252;2024-02-23T05:23:41;94934.13;;;7.17;57.02
9261;BME280;4667;42.726;23.252;2024-02-23T05:26:08;94936.59;;;6.84;57.57
9261;BME280;4667;42.726;23.252;2024-02-23T05:28:36;94932.53;;;6.76;57.54
9261;BME280;4667;42.726;23.252;2024-02-23T05:31:03;94742.34;;;5.99;56.56
9261;BME280;4667;42.726;23.252;2024-02-23T05:33:30;94929.31;;;7.26;56.41
9261;BME280;4667;42.726;23.252;2024-02-23T05:35:59;94831.81;;;6.60;56.84
9261;BME280;4667;42.726;23.252;2024-02-23T05:38:26;94928.06;;;7.28;56.54
9261;BME280;4667;42.726;23.252;2024-02-23T05:40:53;94926.19;;;7.00;56.84
9261;BME280;4667;42.726;23.252;2024-02-23T05:43:20;94930.03;;;7.10;56.88
9261;BME280;4667;42.726;23.252;2024-02-23T05:45:47;94855.72;;;6.64;56.14
9261;BME280;4667;42.726;23.252;2024-02-23T05:48:14;94937.94;;;6.98;56.59
9261;BME280;4667;42.726;23.252;2024-02-23T05:50:40;94667.84;;;5.43;56.51
9261;BME280;4667;42.726;23.252;2024-02-23T05:53:09;94924.41;;;7.29;55.76
9261;BME280;4667;42.726;23.252;2024-02-23T05:55:36;94933.94;;;7.36;55.70
9261;BME280;4667;42.726;23.252;2024-02-23T05:58:03;94872.09;;;6.83;55.88
9261;BME280;4667;42.726;23.252;2024-02-23T06:00:30;94956.31;;;7.38;55.90
9261;BME280;4667;42.726;23.252;2024-02-23T06:02:57;94884.91;;;6.67;56.39
9261;BME280;4667;42.726;23.252;2024-02-23T06:05:24;94947.00;;;7.19;56.35
9261;BME280;4667;42.726;23.252;2024-02-23T06:07:51;94939.94;;;7.19;55.40
9261;BME280;4667;42.726;23.252;2024-02-23T06:10:20;94924.59;;;7.40;55.10
9261;BME280;4667;42.726;23.252;2024-02-23T06:12:47;94798.47;;;6.44;55.50
9261;BME280;4667;42.726;23.252;2024-02-23T06:15:14;94949.31;;;7.44;55.45
9261;BME280;4667;42.726;23.252;2024-02-23T06:17:41;94765.28;;;6.21;54.66
9261;BME280;4667;42.726;23.252;2024-02-23T06:20:09;94961.91;;;7.30;55.39
9261;BME280;4667;42.726;23.252;2024-02-23T06:22:36;94958.78;;;7.45;55.02
9261;BME280;4667;42.726;23.252;2024-02-23T06:25:03;94904.72;;;7.15;54.78
9261;BME280;4667;42.726;23.252;2024-02-23T06:27:32;94952.13;;;7.54;54.54
9261;BME280;4667;42.726;23.252;2024-02-23T06:29:59;94822.44;;;7.04;54.13
9261;BME280;4667;42.726;23.252;2024-02-23T06:32:25;94840.44;;;7.13;53.57
9261;BME280;4667;42.726;23.252;2024-02-23T06:34:52;94863.63;;;7.21;53.42
9261;BME280;4667;42.726;23.252;2024-02-23T06:37:20;94663.22;;;6.09;53.78
9261;BME280;4667;42.726;23.252;2024-02-23T06:39:46;94898.09;;;7.70;53.79
9261;BME280;4667;42.726;23.252;2024-02-23T06:42:19;94869.13;;;7.65;52.86
9261;BME280;4667;42.726;23.252;2024-02-23T06:44:48;94431.47;;;4.64;53.09
9261;BME280;4667;42.726;23.252;2024-02-23T06:47:15;94962.50;;;8.06;52.86
9261;BME280;4667;42.726;23.252;2024-02-23T06:49:42;94933.81;;;7.88;53.09
9261;BME280;4667;42.726;23.252;2024-02-23T06:52:09;94974.53;;;8.36;52.77
9261;BME280;4667;42.726;23.252;2024-02-23T06:54:36;94893.16;;;7.90;53.09
9261;BME280;4667;42.726;23.252;2024-02-23T06:57:04;94964.66;;;8.59;52.05
9261;BME280;4667;42.726;23.252;2024-02-23T06:59:31;94968.81;;;8.39;52.58
9261;BME280;4667;42.726;23.252;2024-02-23T07:01:59;94970.91;;;8.37;52.43
9261;BME280;4667;42.726;23.252;2024-02-23T07:04:26;94970.31;;;8.68;51.79
9261;BME280;4667;42.726;23.252;2024-02-23T07:06:55;94856.91;;;8.04;52.00
9261;BME280;4667;42.726;23.252;2024-02-23T07:09:22;94963.94;;;8.64;51.79
9261;BME280;4667;42.726;23.252;2024-02-23T07:11:49;94960.41;;;8.92;51.33
9261;BME280;4667;42.726;23.252;2024-02-23T07:14:16;94830.84;;;8.19;51.29
9261;BME280;4667;42.726;23.252;2024-02-23T07:16:43;94968.41;;;9.02;51.73
9261;BME280;4667;42.726;23.252;2024-02-23T07:19:11;94958.75;;;9.30;50.35
9261;BME280;4667;42.726;23.252;2024-02-23T07:21:38;94905.53;;;9.01;50.80
9261;BME280;4667;42.726;23.252;2024-02-23T07:24:06;94771.22;;;8.20;51.54
9261;BME280;4667;42.726;23.252;2024-02-23T07:26:33;94955.72;;;9.65;50.24
9261;BME280;4667;42.726;23.252;2024-02-23T07:29:00;94966.38;;;9.75;50.10
9261;BME280;4667;42.726;23.252;2024-02-23T07:31:27;94905.78;;;9.75;49.31
9261;BME280;4667;42.726;23.252;2024-02-23T07:33:54;94894.13;;;10.25;48.18
9261;BME280;4667;42.726;23.252;2024-02-23T07:36:22;94955.59;;;11.20;47.18
9261;BME280;4667;42.726;23.252;2024-02-23T07:38:49;94922.16;;;11.36;46.11
9261;BME280;4667;42.726;23.252;2024-02-23T07:41:16;94958.78;;;12.16;44.84
9261;BME280;4667;42.726;23.252;2024-02-23T07:43:43;94945.53;;;12.67;43.28
9261;BME280;4667;42.726;23.252;2024-02-23T07:46:12;94692.16;;;11.53;42.29
9261;BME280;4667;42.726;23.252;2024-02-23T07:48:39;94835.94;;;12.88;41.90
9261;BME280;4667;42.726;23.252;2024-02-23T07:51:06;94936.13;;;13.85;40.99
9261;BME280;4667;42.726;23.252;2024-02-23T07:53:34;94949.44;;;14.19;40.38
9261;BME280;4667;42.726;23.252;2024-02-23T07:56:01;94902.28;;;14.11;39.27
9261;BME280;4667;42.726;23.252;2024-02-23T07:58:29;94922.91;;;14.82;38.60
9261;BME280;4667;42.726;23.252;2024-02-23T08:00:56;94937.00;;;15.07;38.03
9261;BME280;4667;42.726;23.252;2024-02-23T08:03:23;94924.53;;;15.07;37.85
9261;BME280;4667;42.726;23.252;2024-02-23T08:05:50;94936.19;;;15.54;36.96
9261;BME280;4667;42.726;23.252;2024-02-23T08:08:17;94948.06;;;15.62;36.59
9261;BME280;4667;42.726;23.252;2024-02-23T08:10:45;94889.38;;;15.58;36.51
9261;BME280;4667;42.726;23.252;2024-02-23T08:13:12;94865.41;;;15.64;36.11
9261;BME280;4667;42.726;23.252;2024-02-23T08:15:39;94907.59;;;16.41;34.72
9261;BME280;4667;42.726;23.252;2024-02-23T08:18:06;94924.38;;;16.22;35.13
9261;BME280;4667;42.726;23.252;2024-02-23T08:20:33;94842.19;;;16.21;34.65
9261;BME280;4667;42.726;23.252;2024-02-23T08:23:00;94934.81;;;16.51;34.85
9261;BME280;4667;42.726;23.252;2024-02-23T08:25:27;94793.44;;;16.39;34.31
9261;BME280;4667;42.726;23.252;2024-02-23T08:27:56;94939.72;;;17.78;33.03
9261;BME280;4667;42.726;23.252;2024-02-23T08:30:30;94908.59;;;17.74;32.41
9261;BME280;4667;42.726;23.252;2024-02-23T08:32:57;94937.16;;;18.09;32.61
9261;BME280;4667;42.726;23.252;2024-02-23T08:35:24;94917.53;;;18.50;31.55
9261;BME280;4667;42.726;23.252;2024-02-23T08:37:51;94849.69;;;18.29;31.38
9261;BME280;4667;42.726;23.252;2024-02-23T08:40:18;94695.44;;;17.19;31.75
9261;BME280;4667;42.726;23.252;2024-02-23T08:42:45;94756.22;;;18.20;30.91
9261;BME280;4667;42.726;23.252;2024-02-23T08:45:14;94849.66;;;19.22;29.94
9261;BME280;4667;42.726;23.252;2024-02-23T08:47:41;94915.72;;;19.61;29.89
9261;BME280;4667;42.726;23.252;2024-02-23T08:50:09;94726.03;;;18.11;30.34
9261;BME280;4667;42.726;23.252;2024-02-23T08:52:36;94931.28;;;19.68;30.10
9261;BME280;4667;42.726;23.252;2024-02-23T08:55:03;94889.75;;;19.79;29.77
9261;BME280;4667;42.726;23.252;2024-02-23T08:57:30;94924.22;;;19.81;29.53
9261;BME280;4667;42.726;23.252;2024-02-23T08:59:57;94915.84;;;19.65;29.90
9261;BME280;4667;42.726;23.252;2024-02-23T09:02:25;94768.66;;;18.64;30.05
9261;BME280;4667;42.726;23.252;2024-02-23T09:04:52;94915.59;;;20.01;28.36
9261;BME280;4667;42.726;23.252;2024-02-23T09:07:19;94860.00;;;19.89;28.28
9261;BME280;4667;42.726;23.252;2024-02-23T09:09:46;94907.69;;;19.21;29.57
9261;BME280;4667;42.726;23.252;2024-02-23T09:12:14;94863.06;;;19.39;28.95
9261;BME280;4667;42.726;23.252;2024-02-23T09:14:41;94826.22;;;19.19;28.67
9261;BME280;4667;42.726;23.252;2024-02-23T09:17:09;94921.78;;;19.53;29.10
9261;BME280;4667;42.726;23.252;2024-02-23T09:19:38;94940.66;;;19.08;29.94
9261;BME280;4667;42.726;23.252;2024-02-23T09:22:05;94904.13;;;18.95;30.38
9261;BME280;4667;42.726;23.252;2024-02-23T09:24:32;94914.00;;;18.63;31.24
9261;BME280;4667;42.726;23.252;2024-02-23T09:27:00;94914.91;;;18.36;31.36
9261;BME280;4667;42.726;23.252;2024-02-23T09:29:27;94879.16;;;18.46;31.26
9261;BME280;4667;42.726;23.252;2024-02-23T09:31:54;94917.88;;;18.80;30.92
9261;BME280;4667;42.726;23.252;2024-02-23T09:34:21;94903.69;;;19.02;30.64
9261;BME280;4667;42.726;23.252;2024-02-23T09:36:49;94902.72;;;18.98;30.38
9261;BME280;4667;42.726;23.252;2024-02-23T09:39:16;94846.31;;;18.68;29.98
9261;BME280;4667;42.726;23.252;2024-02-23T09:41:43;94884.38;;;19.13;29.67
9261;BME280;4667;42.726;23.252;2024-02-23T09:44:13;94869.53;;;18.90;30.06
9261;BME280;4667;42.726;23.252;2024-02-23T09:46:43;94868.16;;;18.48;30.24
9261;BME280;4667;42.726;23.252;2024-02-23T09:49:11;94716.84;;;16.77;31.25
9261;BME280;4667;42.726;23.252;2024-02-23T09:51:39;94929.75;;;17.29;32.77
9261;BME280;4667;42.726;23.252;2024-02-23T09:54:08;94916.13;;;17.30;33.07
9261;BME280;4667;42.726;23.252;2024-02-23T09:56:35;94907.69;;;17.64;32.67
9261;BME280;4667;42.726;23.252;2024-02-23T09:59:03;94521.00;;;15.57;32.11
9261;BME280;4667;42.726;23.252;2024-02-23T10:01:31;94912.59;;;18.21;32.29
9261;BME280;4667;42.726;23.252;2024-02-23T10:03:59;94892.28;;;18.79;30.75
9261;BME280;4667;42.726;23.252;2024-02-23T10:06:27;94830.22;;;18.59;30.48
9261;BME280;4667;42.726;23.252;2024-02-23T10:08:54;94894.00;;;18.61;30.81
9261;BME280;4667;42.726;23.252;2024-02-23T10:11:24;94889.59;;;19.18;29.81
9261;BME280;4667;42.726;23.252;2024-02-23T10:13:51;94897.75;;;19.13;29.82
9261;BME280;4667;42.726;23.252;2024-02-23T10:16:18;94706.56;;;18.10;29.38
9261;BME280;4667;42.726;23.252;2024-02-23T10:18:46;94893.56;;;18.67;30.50
9261;BME280;4667;42.726;23.252;2024-02-23T10:21:14;94894.69;;;18.89;30.69
9261;BME280;4667;42.726;23.252;2024-02-23T10:23:41;94426.72;;;16.27;30.12
9261;BME280;4667;42.726;23.252;2024-02-23T10:26:08;94888.06;;;18.64;30.64
9261;BME280;4667;42.726;23.252;2024-02-23T10:28:37;94908.78;;;18.13;30.33
9261;BME280;4667;42.726;23.252;2024-02-23T10:31:05;94881.66;;;17.98;31.03
9261;BME280;4667;42.726;23.252;2024-02-23T10:33:32;94888.34;;;18.31;31.10
9261;BME280;4667;42.726;23.252;2024-02-23T10:36:00;94872.59;;;18.52;30.10
9261;BME280;4667;42.726;23.252;2024-02-23T10:38:29;94645.72;;;17.36;30.37
9261;BME280;4667;42.726;23.252;2024-02-23T10:40:58;94879.16;;;19.00;30.01
9261;BME280;4667;42.726;23.252;2024-02-23T10:43:39;94817.63;;;18.82;29.91
9261;BME280;4667;42.726;23.252;2024-02-23T10:46:08;94863.56;;;19.59;29.07
9261;BME280;4667;42.726;23.252;2024-02-23T10:48:42;94882.22;;;19.98;28.27
9261;BME280;4667;42.726;23.252;2024-02-23T10:51:10;94858.44;;;20.06;27.92
9261;BME280;4667;42.726;23.252;2024-02-23T10:53:39;94865.53;;;20.92;27.08
9261;BME280;4667;42.726;23.252;2024-02-23T10:56:07;94847.97;;;20.56;28.18
9261;BME280;4667;42.726;23.252;2024-02-23T10:58:34;94852.72;;;20.50;27.69
9261;BME280;4667;42.726;23.252;2024-02-23T11:01:04;94848.06;;;19.87;28.28
9261;BME280;4667;42.726;23.252;2024-02-23T11:03:36;94601.03;;;19.31;27.14
9261;BME280;4667;42.726;23.252;2024-02-23T11:06:06;94831.03;;;21.49;26.17
9261;BME280;4667;42.726;23.252;2024-02-23T11:08:33;94798.38;;;22.55;24.52
9261;BME280;4667;42.726;23.252;2024-02-23T11:11:07;94825.75;;;21.83;25.56
9261;BME280;4667;42.726;23.252;2024-02-23T11:13:35;94761.31;;;21.83;24.99
9261;BME280;4667;42.726;23.252;2024-02-23T11:16:05;94831.69;;;21.46;25.98
9261;BME280;4667;42.726;23.252;2024-02-23T11:18:34;94733.84;;;20.93;27.60
9261;BME280;4667;42.726;23.252;2024-02-23T11:21:05;94734.19;;;21.63;25.58
9261;BME280;4667;42.726;23.252;2024-02-23T11:23:41;94765.94;;;22.15;24.31
9261;BME280;4667;42.726;23.252;2024-02-23T11:26:10;94812.31;;;22.03;24.71
9261;BME280;4667;42.726;23.252;2024-02-23T11:28:48;94755.84;;;22.57;24.13
9261;BME280;4667;42.726;23.252;2024-02-23T11:31:20;94713.72;;;22.74;23.07
9261;BME280;4667;42.726;23.252;2024-02-23T11:33:49;94765.94;;;23.74;22.27
9261;BME280;4667;42.726;23.252;2024-02-23T11:36:22;94725.16;;;23.07;23.15
9261;BME280;4667;42.726;23.252;2024-02-23T11:38:52;94804.34;;;22.86;23.96
9261;BME280;4667;42.726;23.252;2024-02-23T11:41:21;94669.59;;;22.75;22.96
9261;BME280;4667;42.726;23.252;2024-02-23T11:43:49;94710.13;;;23.19;23.23
9261;BME280;4667;42.726;23.252;2024-02-23T11:46:19;94797.00;;;23.84;22.37
9261;BME280;4667;42.726;23.252;2024-02-23T11:48:46;94796.97;;;23.96;21.79
9261;BME280;4667;42.726;23.252;2024-02-23T11:51:18;94782.03;;;22.61;23.30
9261;BME280;4667;42.726;23.252;2024-02-23T11:53:46;94664.78;;;21.41;24.68
9261;BME280;4667;42.726;23.252;2024-02-23T11:56:14;94808.41;;;21.29;25.28
9261;BME280;4667;42.726;23.252;2024-02-23T11:58:41;94692.56;;;19.62;26.80
9261;BME280;4667;42.726;23.252;2024-02-23T12:01:08;94612.59;;;18.22;28.09
9261;BME280;4667;42.726;23.252;2024-02-23T12:03:37;94681.28;;;18.56;28.62
9261;BME280;4667;42.726;23.252;2024-02-23T12:06:05;94802.00;;;19.15;28.52
9261;BME280;4667;42.726;23.252;2024-02-23T12:08:33;94567.53;;;17.50;28.65
9261;BME280;4667;42.726;23.252;2024-02-23T12:11:04;94782.00;;;18.95;28.64
9261;BME280;4667;42.726;23.252;2024-02-23T12:13:34;94741.63;;;19.14;28.06
9261;BME280;4667;42.726;23.252;2024-02-23T12:16:01;94684.34;;;19.59;27.11
9261;BME280;4667;42.726;23.252;2024-02-23T12:18:29;94686.75;;;19.52;26.98
9261;BME280;4667;42.726;23.252;2024-02-23T12:21:04;94529.69;;;18.36;27.41
9261;BME280;4667;42.726;23.252;2024-02-23T12:23:41;94682.50;;;19.07;27.74
9261;BME280;4667;42.726;23.252;2024-02-23T12:26:12;94751.09;;;19.64;27.56
9261;BME280;4667;42.726;23.252;2024-02-23T12:28:39;94763.53;;;18.77;28.51
9261;BME280;4667;42.726;23.252;2024-02-23T12:31:08;94762.84;;;18.62;29.26
9261;BME280;4667;42.726;23.252;2024-02-23T12:33:36;94506.19;;;16.20;30.24
9261;BME280;4667;42.726;23.252;2024-02-23T12:36:08;94661.56;;;16.97;30.21
9261;BME280;4667;42.726;23.252;2024-02-23T12:38:37;94410.09;;;15.63;30.34
9261;BME280;4667;42.726;23.252;2024-02-23T12:41:04;94213.38;;;14.27;30.42
9261;BME280;4667;42.726;23.252;2024-02-23T12:43:31;94536.75;;;16.68;30.02
9261;BME280;4667;42.726;23.252;2024-02-23T12:45:59;94272.97;;;15.26;29.76
9261;BME280;4667;42.726;23.252;2024-02-23T12:48:30;94655.28;;;18.22;29.08
9261;BME280;4667;42.726;23.252;2024-02-23T12:50:57;94438.63;;;17.37;28.27
9261;BME280;4667;42.726;23.252;2024-02-23T12:53:33;94710.34;;;19.41;27.79
9261;BME280;4667;42.726;23.252;2024-02-23T12:56:02;94302.50;;;17.16;27.37
9261;BME280;4667;42.726;23.252;2024-02-23T12:58:28;94740.91;;;20.21;26.73
9261;BME280;4667;42.726;23.252;2024-02-23T13:00:56;94375.38;;;17.11;27.46
9261;BME280;4667;42.726;23.252;2024-02-23T13:03:24;94383.47;;;16.98;27.66
9261;BME280;4667;42.726;23.252;2024-02-23T13:05:52;94484.41;;;17.39;28.52
9261;BME280;4667;42.726;23.252;2024-02-23T13:08:19;94390.03;;;16.92;27.93
9261;BME280;4667;42.726;23.252;2024-02-23T13:10:50;94648.22;;;18.26;28.37
9261;BME280;4667;42.726;23.252;2024-02-23T13:13:18;94730.47;;;18.55;28.47
9261;BME280;4667;42.726;23.252;2024-02-23T13:15:48;94412.59;;;16.18;28.90
9261;BME280;4667;42.726;23.252;2024-02-23T13:18:23;94639.41;;;17.55;28.92
9261;BME280;4667;42.726;23.252;2024-02-23T13:20:50;94728.63;;;17.71;29.80